Terminal Aerodrome Forecast
Issued by NWS Jackson, MS

Home | Current Version | Previous Version | Text Only | Print | Product List | Glossary On
Versions: 1 2 3 4 5 6 7 8 9 10 11 12 13 14 15 16 17
000
FTUS44 KJAN 231035 AAA
TAFGLH
TAF AMD
KGLH 231035Z 2311/2406 20018G28KT 5SM SHRA VCTS SCT017 BKN026
      OVC040CB
     FM231230 21018G27KT 5SM -TSRA BKN015 OVC030CB
     FM231800 22016G25KT 6SM -SHRA VCTS BKN025 OVC050CB
     FM240300 25010KT 6SM -TSRA SCT025 BKN050CB=

USA.gov is the U.S. government's official web portal to all federal, state and local government web resources and services.